sensor_id;sensor_type;location;lat;lon;timestamp;P1;durP1;ratioP1;P2;durP2;ratioP2
44973;SDS011;60981;50.720;11.342;2022-11-20T00:00:45;32.75;;;14.25;;
44973;SDS011;60981;50.720;11.342;2022-11-20T00:01:47;27.95;;;13.65;;
44973;SDS011;60981;50.720;11.342;2022-11-20T00:02:49;28.42;;;12.65;;
44973;SDS011;60981;50.720;11.342;2022-11-20T00:03:51;30.42;;;13.00;;
44973;SDS011;60981;50.720;11.342;2022-11-20T00:04:54;28.88;;;13.90;;
44973;SDS011;60981;50.720;11.342;2022-11-20T00:06:00;31.65;;;14.60;;
44973;SDS011;60981;50.720;11.342;2022-11-20T00:07:03;29.48;;;13.82;;
44973;SDS011;60981;50.720;11.342;2022-11-20T00:08:04;30.13;;;13.35;;
44973;SDS011;60981;50.720;11.342;2022-11-20T00:09:06;29.90;;;15.40;;
44973;SDS011;60981;50.720;11.342;2022-11-20T00:10:11;29.27;;;13.80;;
44973;SDS011;60981;50.720;11.342;2022-11-20T00:11:13;31.52;;;14.32;;
44973;SDS011;60981;50.720;11.342;2022-11-20T00:12:17;29.90;;;13.43;;
44973;SDS011;60981;50.720;11.342;2022-11-20T00:13:19;31.73;;;13.35;;
44973;SDS011;60981;50.720;11.342;2022-11-20T00:14:20;27.27;;;13.32;;
44973;SDS011;60981;50.720;11.342;2022-11-20T00:15:22;31.45;;;13.43;;
44973;SDS011;60981;50.720;11.342;2022-11-20T00:16:25;28.92;;;13.27;;
44973;SDS011;60981;50.720;11.342;2022-11-20T00:17:29;30.73;;;14.63;;
44973;SDS011;60981;50.720;11.342;2022-11-20T00:18:32;32.90;;;13.18;;
44973;SDS011;60981;50.720;11.342;2022-11-20T00:19:34;30.33;;;13.13;;
44973;SDS011;60981;50.720;11.342;2022-11-20T00:20:36;28.15;;;13.05;;
44973;SDS011;60981;50.720;11.342;2022-11-20T00:21:37;25.15;;;11.75;;
44973;SDS011;60981;50.720;11.342;2022-11-20T00:22:39;32.67;;;13.50;;
44973;SDS011;60981;50.720;11.342;2022-11-20T00:23:41;26.35;;;12.73;;
44973;SDS011;60981;50.720;11.342;2022-11-20T00:24:44;26.95;;;12.63;;
44973;SDS011;60981;50.720;11.342;2022-11-20T00:25:45;31.17;;;13.70;;
44973;SDS011;60981;50.720;11.342;2022-11-20T00:26:47;27.67;;;13.35;;
44973;SDS011;60981;50.720;11.342;2022-11-20T00:27:49;28.67;;;12.20;;
44973;SDS011;60981;50.720;11.342;2022-11-20T00:28:51;25.40;;;12.85;;
44973;SDS011;60981;50.720;11.342;2022-11-20T00:29:57;23.05;;;11.60;;
44973;SDS011;60981;50.720;11.342;2022-11-20T00:31:06;30.00;;;13.55;;
44973;SDS011;60981;50.720;11.342;2022-11-20T00:32:09;28.17;;;13.70;;
44973;SDS011;60981;50.720;11.342;2022-11-20T00:33:11;32.45;;;14.77;;
44973;SDS011;60981;50.720;11.342;2022-11-20T00:34:12;26.85;;;13.50;;
44973;SDS011;60981;50.720;11.342;2022-11-20T00:35:14;27.15;;;13.00;;
44973;SDS011;60981;50.720;11.342;2022-11-20T00:36:17;30.83;;;13.70;;
44973;SDS011;60981;50.720;11.342;2022-11-20T00:37:20;29.30;;;13.38;;
44973;SDS011;60981;50.720;11.342;2022-11-20T00:38:22;28.30;;;13.25;;
44973;SDS011;60981;50.720;11.342;2022-11-20T00:39:24;30.98;;;14.70;;
44973;SDS011;60981;50.720;11.342;2022-11-20T00:40:25;30.48;;;14.38;;
44973;SDS011;60981;50.720;11.342;2022-11-20T00:41:28;32.42;;;14.70;;
44973;SDS011;60981;50.720;11.342;2022-11-20T00:42:31;27.65;;;14.13;;
44973;SDS011;60981;50.720;11.342;2022-11-20T00:43:34;29.77;;;14.80;;
44973;SDS011;60981;50.720;11.342;2022-11-20T00:44:36;25.85;;;12.35;;
44973;SDS011;60981;50.720;11.342;2022-11-20T00:45:38;26.30;;;13.52;;
44973;SDS011;60981;50.720;11.342;2022-11-20T00:46:39;27.10;;;12.68;;
44973;SDS011;60981;50.720;11.342;2022-11-20T00:47:41;27.48;;;12.40;;
44973;SDS011;60981;50.720;11.342;2022-11-20T00:48:43;27.80;;;12.63;;
44973;SDS011;60981;50.720;11.342;2022-11-20T00:49:46;27.38;;;13.00;;
44973;SDS011;60981;50.720;11.342;2022-11-20T00:50:47;27.83;;;12.88;;
44973;SDS011;60981;50.720;11.342;2022-11-20T00:51:49;26.60;;;12.20;;
44973;SDS011;60981;50.720;11.342;2022-11-20T00:52:52;26.25;;;12.35;;
44973;SDS011;60981;50.720;11.342;2022-11-20T00:53:57;31.67;;;13.98;;
44973;SDS011;60981;50.720;11.342;2022-11-20T00:55:01;31.90;;;13.95;;
44973;SDS011;60981;50.720;11.342;2022-11-20T00:56:04;29.80;;;12.52;;
44973;SDS011;60981;50.720;11.342;2022-11-20T00:57:07;27.30;;;13.05;;
44973;SDS011;60981;50.720;11.342;2022-11-20T00:58:09;26.42;;;12.10;;
44973;SDS011;60981;50.720;11.342;2022-11-20T00:59:14;25.05;;;11.55;;
44973;SDS011;60981;50.720;11.342;2022-11-20T01:00:16;24.35;;;10.82;;
44973;SDS011;60981;50.720;11.342;2022-11-20T01:01:18;26.20;;;12.13;;
44973;SDS011;60981;50.720;11.342;2022-11-20T01:02:27;27.92;;;12.82;;
44973;SDS011;60981;50.720;11.342;2022-11-20T01:03:32;29.70;;;13.55;;
44973;SDS011;60981;50.720;11.342;2022-11-20T01:04:35;27.20;;;12.82;;
44973;SDS011;60981;50.720;11.342;2022-11-20T01:05:37;24.88;;;12.30;;
44973;SDS011;60981;50.720;11.342;2022-11-20T01:06:39;27.02;;;12.35;;
44973;SDS011;60981;50.720;11.342;2022-11-20T01:07:41;25.40;;;11.23;;
44973;SDS011;60981;50.720;11.342;2022-11-20T01:08:43;24.52;;;10.27;;
44973;SDS011;60981;50.720;11.342;2022-11-20T01:09:45;31.35;;;13.15;;
44973;SDS011;60981;50.720;11.342;2022-11-20T01:10:46;25.77;;;12.30;;
44973;SDS011;60981;50.720;11.342;2022-11-20T01:11:48;28.50;;;12.02;;
44973;SDS011;60981;50.720;11.342;2022-11-20T01:12:50;24.65;;;12.25;;
44973;SDS011;60981;50.720;11.342;2022-11-20T01:14:13;31.15;;;13.23;;
44973;SDS011;60981;50.720;11.342;2022-11-20T01:15:16;29.48;;;12.02;;
44973;SDS011;60981;50.720;11.342;2022-11-20T01:16:19;24.08;;;11.13;;
44973;SDS011;60981;50.720;11.342;2022-11-20T01:17:25;26.70;;;11.98;;
44973;SDS011;60981;50.720;11.342;2022-11-20T01:18:27;26.35;;;12.25;;
44973;SDS011;60981;50.720;11.342;2022-11-20T01:19:28;28.55;;;12.75;;
44973;SDS011;60981;50.720;11.342;2022-11-20T01:20:35;26.10;;;12.90;;
44973;SDS011;60981;50.720;11.342;2022-11-20T01:21:38;23.95;;;11.65;;
44973;SDS011;60981;50.720;11.342;2022-11-20T01:22:41;26.52;;;11.68;;
44973;SDS011;60981;50.720;11.342;2022-11-20T01:23:44;29.02;;;12.50;;
44973;SDS011;60981;50.720;11.342;2022-11-20T01:24:46;27.63;;;11.40;;
44973;SDS011;60981;50.720;11.342;2022-11-20T01:25:48;26.00;;;12.60;;
44973;SDS011;60981;50.720;11.342;2022-11-20T01:26:50;24.02;;;11.07;;
44973;SDS011;60981;50.720;11.342;2022-11-20T01:27:52;27.70;;;12.07;;
44973;SDS011;60981;50.720;11.342;2022-11-20T01:28:54;25.48;;;11.70;;
44973;SDS011;60981;50.720;11.342;2022-11-20T01:29:57;27.33;;;12.10;;
44973;SDS011;60981;50.720;11.342;2022-11-20T01:31:01;29.90;;;11.73;;
44973;SDS011;60981;50.720;11.342;2022-11-20T01:32:31;28.90;;;11.38;;
44973;SDS011;60981;50.720;11.342;2022-11-20T01:33:33;30.75;;;12.40;;
44973;SDS011;60981;50.720;11.342;2022-11-20T01:34:35;27.20;;;12.63;;
44973;SDS011;60981;50.720;11.342;2022-11-20T01:35:36;25.48;;;11.80;;
44973;SDS011;60981;50.720;11.342;2022-11-20T01:36:38;28.27;;;12.60;;
44973;SDS011;60981;50.720;11.342;2022-11-20T01:37:41;25.38;;;10.98;;
44973;SDS011;60981;50.720;11.342;2022-11-20T01:38:43;27.30;;;11.88;;
44973;SDS011;60981;50.720;11.342;2022-11-20T01:39:45;27.67;;;11.93;;
44973;SDS011;60981;50.720;11.342;2022-11-20T01:40:53;26.95;;;11.75;;
44973;SDS011;60981;50.720;11.342;2022-11-20T01:41:57;27.98;;;12.35;;
44973;SDS011;60981;50.720;11.342;2022-11-20T01:43:18;25.60;;;11.57;;
44973;SDS011;60981;50.720;11.342;2022-11-20T01:47:08;29.05;;;13.00;;
44973;SDS011;60981;50.720;11.342;2022-11-20T01:48:13;28.10;;;12.38;;
44973;SDS011;60981;50.720;11.342;2022-11-20T01:49:18;27.15;;;11.60;;
44973;SDS011;60981;50.720;11.342;2022-11-20T01:50:24;24.88;;;11.75;;
44973;SDS011;60981;50.720;11.342;2022-11-20T01:51:34;29.33;;;12.13;;
44973;SDS011;60981;50.720;11.342;2022-11-20T01:52:45;31.67;;;11.35;;
44973;SDS011;60981;50.720;11.342;2022-11-20T01:53:51;25.15;;;11.40;;
44973;SDS011;60981;50.720;11.342;2022-11-20T01:56:05;25.50;;;11.65;;
44973;SDS011;60981;50.720;11.342;2022-11-20T01:57:11;30.48;;;12.57;;
44973;SDS011;60981;50.720;11.342;2022-11-20T01:58:13;26.33;;;11.85;;
44973;SDS011;60981;50.720;11.342;2022-11-20T01:59:16;25.23;;;12.05;;
44973;SDS011;60981;50.720;11.342;2022-11-20T02:00:20;26.15;;;11.90;;
44973;SDS011;60981;50.720;11.342;2022-11-20T02:01:22;27.83;;;12.25;;
44973;SDS011;60981;50.720;11.342;2022-11-20T02:02:24;29.80;;;11.48;;
44973;SDS011;60981;50.720;11.342;2022-11-20T02:03:27;24.05;;;11.20;;
44973;SDS011;60981;50.720;11.342;2022-11-20T02:04:29;27.55;;;12.00;;
44973;SDS011;60981;50.720;11.342;2022-11-20T02:05:35;21.95;;;10.98;;
44973;SDS011;60981;50.720;11.342;2022-11-20T02:06:46;23.70;;;10.85;;
44973;SDS011;60981;50.720;11.342;2022-11-20T02:07:51;25.55;;;10.68;;
44973;SDS011;60981;50.720;11.342;2022-11-20T02:08:55;23.48;;;11.20;;
44973;SDS011;60981;50.720;11.342;2022-11-20T02:09:57;27.00;;;12.02;;
44973;SDS011;60981;50.720;11.342;2022-11-20T02:10:59;25.20;;;11.60;;
44973;SDS011;60981;50.720;11.342;2022-11-20T02:12:01;24.52;;;11.52;;
44973;SDS011;60981;50.720;11.342;2022-11-20T02:13:04;24.15;;;10.70;;
44973;SDS011;60981;50.720;11.342;2022-11-20T02:14:24;24.63;;;11.43;;
44973;SDS011;60981;50.720;11.342;2022-11-20T02:15:27;25.27;;;11.50;;
44973;SDS011;60981;50.720;11.342;2022-11-20T02:16:31;24.33;;;11.20;;
44973;SDS011;60981;50.720;11.342;2022-11-20T02:17:37;26.02;;;11.55;;
44973;SDS011;60981;50.720;11.342;2022-11-20T02:18:39;24.65;;;11.38;;
44973;SDS011;60981;50.720;11.342;2022-11-20T02:19:42;24.73;;;10.85;;
44973;SDS011;60981;50.720;11.342;2022-11-20T02:20:44;27.40;;;11.45;;
44973;SDS011;60981;50.720;11.342;2022-11-20T02:22:08;24.80;;;10.48;;
44973;SDS011;60981;50.720;11.342;2022-11-20T02:24:33;26.27;;;11.55;;
44973;SDS011;60981;50.720;11.342;2022-11-20T02:25:35;23.58;;;10.55;;
44973;SDS011;60981;50.720;11.342;2022-11-20T02:27:56;23.50;;;10.38;;
44973;SDS011;60981;50.720;11.342;2022-11-20T02:28:58;26.00;;;11.57;;
44973;SDS011;60981;50.720;11.342;2022-11-20T02:30:05;24.60;;;10.40;;
44973;SDS011;60981;50.720;11.342;2022-11-20T02:31:12;26.00;;;11.70;;
44973;SDS011;60981;50.720;11.342;2022-11-20T02:32:20;26.08;;;11.48;;
44973;SDS011;60981;50.720;11.342;2022-11-20T02:33:23;24.15;;;10.95;;
44973;SDS011;60981;50.720;11.342;2022-11-20T02:34:25;23.50;;;10.05;;
44973;SDS011;60981;50.720;11.342;2022-11-20T02:36:28;23.23;;;10.18;;
44973;SDS011;60981;50.720;11.342;2022-11-20T02:37:33;25.23;;;10.63;;
44973;SDS011;60981;50.720;11.342;2022-11-20T02:38:38;25.45;;;10.80;;
44973;SDS011;60981;50.720;11.342;2022-11-20T02:39:41;25.55;;;11.38;;
44973;SDS011;60981;50.720;11.342;2022-11-20T02:40:43;24.98;;;11.15;;
44973;SDS011;60981;50.720;11.342;2022-11-20T02:41:45;26.27;;;11.15;;
44973;SDS011;60981;50.720;11.342;2022-11-20T02:42:47;24.45;;;10.18;;
44973;SDS011;60981;50.720;11.342;2022-11-20T02:43:49;27.10;;;11.30;;
44973;SDS011;60981;50.720;11.342;2022-11-20T02:44:51;25.83;;;10.13;;
44973;SDS011;60981;50.720;11.342;2022-11-20T02:45:56;26.88;;;11.88;;
44973;SDS011;60981;50.720;11.342;2022-11-20T02:46:58;23.20;;;10.57;;
44973;SDS011;60981;50.720;11.342;2022-11-20T02:48:00;24.70;;;10.70;;
44973;SDS011;60981;50.720;11.342;2022-11-20T02:49:03;24.58;;;9.68;;
44973;SDS011;60981;50.720;11.342;2022-11-20T02:50:06;27.95;;;11.38;;
44973;SDS011;60981;50.720;11.342;2022-11-20T02:51:07;23.05;;;11.20;;
44973;SDS011;60981;50.720;11.342;2022-11-20T02:52:09;27.75;;;11.63;;
44973;SDS011;60981;50.720;11.342;2022-11-20T02:53:11;24.75;;;10.93;;
44973;SDS011;60981;50.720;11.342;2022-11-20T02:54:12;25.10;;;10.68;;
44973;SDS011;60981;50.720;11.342;2022-11-20T02:55:14;24.05;;;10.75;;
44973;SDS011;60981;50.720;11.342;2022-11-20T02:56:16;24.40;;;10.00;;
44973;SDS011;60981;50.720;11.342;2022-11-20T02:57:18;24.70;;;10.35;;
44973;SDS011;60981;50.720;11.342;2022-11-20T02:58:19;22.05;;;10.07;;
44973;SDS011;60981;50.720;11.342;2022-11-20T02:59:21;23.13;;;11.38;;
44973;SDS011;60981;50.720;11.342;2022-11-20T03:00:24;27.20;;;11.68;;
44973;SDS011;60981;50.720;11.342;2022-11-20T03:01:26;26.30;;;10.48;;
44973;SDS011;60981;50.720;11.342;2022-11-20T03:02:30;23.58;;;11.02;;
44973;SDS011;60981;50.720;11.342;2022-11-20T03:03:32;24.77;;;10.85;;
44973;SDS011;60981;50.720;11.342;2022-11-20T03:04:34;23.30;;;11.10;;
44973;SDS011;60981;50.720;11.342;2022-11-20T03:05:36;24.52;;;11.65;;
44973;SDS011;60981;50.720;11.342;2022-11-20T03:06:37;21.58;;;10.48;;
44973;SDS011;60981;50.720;11.342;2022-11-20T03:07:39;29.02;;;12.45;;
44973;SDS011;60981;50.720;11.342;2022-11-20T03:08:41;23.05;;;11.25;;
44973;SDS011;60981;50.720;11.342;2022-11-20T03:09:43;26.25;;;10.70;;
44973;SDS011;60981;50.720;11.342;2022-11-20T03:10:45;24.30;;;9.95;;
44973;SDS011;60981;50.720;11.342;2022-11-20T03:11:46;26.02;;;10.55;;
44973;SDS011;60981;50.720;11.342;2022-11-20T03:12:52;24.10;;;10.27;;
44973;SDS011;60981;50.720;11.342;2022-11-20T03:13:56;26.10;;;10.82;;
44973;SDS011;60981;50.720;11.342;2022-11-20T03:14:58;22.40;;;10.70;;
44973;SDS011;60981;50.720;11.342;2022-11-20T03:16:10;26.70;;;10.95;;
44973;SDS011;60981;50.720;11.342;2022-11-20T03:17:14;25.35;;;11.32;;
44973;SDS011;60981;50.720;11.342;2022-11-20T03:18:15;23.42;;;10.05;;
44973;SDS011;60981;50.720;11.342;2022-11-20T03:19:17;21.10;;;9.55;;
44973;SDS011;60981;50.720;11.342;2022-11-20T03:20:20;25.65;;;11.00;;
44973;SDS011;60981;50.720;11.342;2022-11-20T03:21:21;21.20;;;10.07;;
44973;SDS011;60981;50.720;11.342;2022-11-20T03:22:23;21.88;;;10.13;;
44973;SDS011;60981;50.720;11.342;2022-11-20T03:23:25;24.55;;;9.65;;
44973;SDS011;60981;50.720;11.342;2022-11-20T03:24:26;27.13;;;10.57;;
44973;SDS011;60981;50.720;11.342;2022-11-20T03:25:28;23.65;;;10.35;;
44973;SDS011;60981;50.720;11.342;2022-11-20T03:26:30;25.90;;;11.15;;
44973;SDS011;60981;50.720;11.342;2022-11-20T03:27:33;23.83;;;9.88;;
44973;SDS011;60981;50.720;11.342;2022-11-20T03:28:35;26.02;;;10.55;;
44973;SDS011;60981;50.720;11.342;2022-11-20T03:29:37;23.38;;;10.73;;
44973;SDS011;60981;50.720;11.342;2022-11-20T03:30:39;25.13;;;11.40;;
44973;SDS011;60981;50.720;11.342;2022-11-20T03:31:40;23.23;;;9.88;;
44973;SDS011;60981;50.720;11.342;2022-11-20T03:32:42;22.30;;;9.98;;
44973;SDS011;60981;50.720;11.342;2022-11-20T03:33:44;26.75;;;11.07;;
44973;SDS011;60981;50.720;11.342;2022-11-20T03:34:46;25.88;;;10.98;;
44973;SDS011;60981;50.720;11.342;2022-11-20T03:35:47;23.13;;;9.98;;
44973;SDS011;60981;50.720;11.342;2022-11-20T03:36:49;24.58;;;10.68;;
44973;SDS011;60981;50.720;11.342;2022-11-20T03:37:51;26.00;;;11.45;;
44973;SDS011;60981;50.720;11.342;2022-11-20T03:38:53;25.55;;;10.82;;
44973;SDS011;60981;50.720;11.342;2022-11-20T03:39:56;22.83;;;10.02;;
44973;SDS011;60981;50.720;11.342;2022-11-20T03:41:01;22.70;;;10.25;;
44973;SDS011;60981;50.720;11.342;2022-11-20T03:42:04;23.10;;;10.30;;
44973;SDS011;60981;50.720;11.342;2022-11-20T03:43:26;24.67;;;10.32;;
44973;SDS011;60981;50.720;11.342;2022-11-20T03:44:28;26.05;;;10.07;;
44973;SDS011;60981;50.720;11.342;2022-11-20T03:45:29;25.27;;;10.35;;
44973;SDS011;60981;50.720;11.342;2022-11-20T03:46:31;22.75;;;9.63;;
44973;SDS011;60981;50.720;11.342;2022-11-20T03:47:33;22.33;;;9.88;;
44973;SDS011;60981;50.720;11.342;2022-11-20T03:48:34;22.17;;;9.50;;
44973;SDS011;60981;50.720;11.342;2022-11-20T03:49:36;22.45;;;9.70;;
44973;SDS011;60981;50.720;11.342;2022-11-20T03:50:38;28.15;;;11.63;;
44973;SDS011;60981;50.720;11.342;2022-11-20T03:51:39;23.10;;;10.25;;
44973;SDS011;60981;50.720;11.342;2022-11-20T03:52:41;22.05;;;9.63;;
44973;SDS011;60981;50.720;11.342;2022-11-20T03:53:44;25.73;;;11.38;;
44973;SDS011;60981;50.720;11.342;2022-11-20T03:54:46;25.95;;;10.40;;
44973;SDS011;60981;50.720;11.342;2022-11-20T03:55:51;22.02;;;10.63;;
44973;SDS011;60981;50.720;11.342;2022-11-20T03:56:53;23.30;;;10.20;;
44973;SDS011;60981;50.720;11.342;2022-11-20T03:57:54;22.10;;;10.27;;
44973;SDS011;60981;50.720;11.342;2022-11-20T03:58:56;26.08;;;10.27;;
44973;SDS011;60981;50.720;11.342;2022-11-20T03:59:58;21.70;;;9.55;;
44973;SDS011;60981;50.720;11.342;2022-11-20T04:01:04;22.77;;;10.13;;
44973;SDS011;60981;50.720;11.342;2022-11-20T04:02:07;24.13;;;10.70;;
44973;SDS011;60981;50.720;11.342;2022-11-20T04:03:09;24.00;;;10.25;;
44973;SDS011;60981;50.720;11.342;2022-11-20T04:04:10;22.92;;;9.88;;
44973;SDS011;60981;50.720;11.342;2022-11-20T04:05:12;22.08;;;9.45;;
44973;SDS011;60981;50.720;11.342;2022-11-20T04:06:21;22.13;;;9.93;;
44973;SDS011;60981;50.720;11.342;2022-11-20T04:07:24;22.27;;;9.95;;
44973;SDS011;60981;50.720;11.342;2022-11-20T04:08:27;21.10;;;8.98;;
44973;SDS011;60981;50.720;11.342;2022-11-20T04:09:29;23.77;;;9.70;;
44973;SDS011;60981;50.720;11.342;2022-11-20T04:10:31;24.15;;;10.40;;
44973;SDS011;60981;50.720;11.342;2022-11-20T04:11:34;23.05;;;10.30;;
44973;SDS011;60981;50.720;11.342;2022-11-20T04:12:38;24.77;;;9.23;;
44973;SDS011;60981;50.720;11.342;2022-11-20T04:13:40;23.17;;;10.00;;
44973;SDS011;60981;50.720;11.342;2022-11-20T04:14:44;22.48;;;10.63;;
44973;SDS011;60981;50.720;11.342;2022-11-20T04:15:45;22.10;;;9.60;;
44973;SDS011;60981;50.720;11.342;2022-11-20T04:16:47;25.55;;;10.23;;
44973;SDS011;60981;50.720;11.342;2022-11-20T04:17:49;22.85;;;10.48;;
44973;SDS011;60981;50.720;11.342;2022-11-20T04:18:53;21.42;;;9.93;;
44973;SDS011;60981;50.720;11.342;2022-11-20T04:19:56;21.17;;;10.32;;
44973;SDS011;60981;50.720;11.342;2022-11-20T04:20:58;22.98;;;10.00;;
44973;SDS011;60981;50.720;11.342;2022-11-20T04:22:00;20.83;;;9.60;;
44973;SDS011;60981;50.720;11.342;2022-11-20T04:23:02;26.65;;;10.93;;
44973;SDS011;60981;50.720;11.342;2022-11-20T04:24:05;25.40;;;9.82;;
44973;SDS011;60981;50.720;11.342;2022-11-20T04:25:08;25.40;;;9.82;;
44973;SDS011;60981;50.720;11.342;2022-11-20T04:26:10;23.88;;;10.32;;
44973;SDS011;60981;50.720;11.342;2022-11-20T04:27:13;24.70;;;10.18;;
44973;SDS011;60981;50.720;11.342;2022-11-20T04:28:14;21.98;;;9.57;;
44973;SDS011;60981;50.720;11.342;2022-11-20T04:29:16;24.67;;;10.55;;
44973;SDS011;60981;50.720;11.342;2022-11-20T04:30:18;21.65;;;8.27;;
44973;SDS011;60981;50.720;11.342;2022-11-20T04:31:21;22.98;;;10.05;;
44973;SDS011;60981;50.720;11.342;2022-11-20T04:32:25;23.67;;;8.75;;
44973;SDS011;60981;50.720;11.342;2022-11-20T04:33:27;23.30;;;10.32;;
44973;SDS011;60981;50.720;11.342;2022-11-20T04:34:34;23.48;;;10.15;;
44973;SDS011;60981;50.720;11.342;2022-11-20T04:35:36;23.10;;;9.30;;
44973;SDS011;60981;50.720;11.342;2022-11-20T04:36:38;23.95;;;9.07;;
44973;SDS011;60981;50.720;11.342;2022-11-20T04:37:40;23.83;;;9.85;;
44973;SDS011;60981;50.720;11.342;2022-11-20T04:38:42;20.27;;;8.95;;
44973;SDS011;60981;50.720;11.342;2022-11-20T04:39:44;20.17;;;9.35;;
44973;SDS011;60981;50.720;11.342;2022-11-20T04:40:45;22.65;;;9.45;;
44973;SDS011;60981;50.720;11.342;2022-11-20T04:41:48;20.83;;;9.82;;
44973;SDS011;60981;50.720;11.342;2022-11-20T04:43:10;21.05;;;8.52;;
44973;SDS011;60981;50.720;11.342;2022-11-20T04:44:12;23.25;;;9.82;;
44973;SDS011;60981;50.720;11.342;2022-11-20T04:45:14;22.02;;;9.75;;
44973;SDS011;60981;50.720;11.342;2022-11-20T04:46:16;19.02;;;8.52;;
44973;SDS011;60981;50.720;11.342;2022-11-20T04:47:19;21.77;;;9.20;;
44973;SDS011;60981;50.720;11.342;2022-11-20T04:48:21;22.52;;;9.48;;
44973;SDS011;60981;50.720;11.342;2022-11-20T04:49:23;19.33;;;8.88;;
44973;SDS011;60981;50.720;11.342;2022-11-20T04:50:26;21.15;;;8.88;;
44973;SDS011;60981;50.720;11.342;2022-11-20T04:51:28;20.05;;;8.05;;
44973;SDS011;60981;50.720;11.342;2022-11-20T04:52:30;22.80;;;9.18;;
44973;SDS011;60981;50.720;11.342;2022-11-20T04:53:31;21.63;;;9.00;;
44973;SDS011;60981;50.720;11.342;2022-11-20T04:54:33;17.95;;;8.20;;
44973;SDS011;60981;50.720;11.342;2022-11-20T04:55:35;20.48;;;8.52;;
44973;SDS011;60981;50.720;11.342;2022-11-20T04:56:37;20.23;;;9.05;;
44973;SDS011;60981;50.720;11.342;2022-11-20T04:57:38;21.10;;;8.73;;
44973;SDS011;60981;50.720;11.342;2022-11-20T04:58:40;20.98;;;9.32;;
44973;SDS011;60981;50.720;11.342;2022-11-20T04:59:42;20.92;;;8.88;;
44973;SDS011;60981;50.720;11.342;2022-11-20T05:00:44;19.05;;;8.98;;
44973;SDS011;60981;50.720;11.342;2022-11-20T05:01:46;22.08;;;8.77;;
44973;SDS011;60981;50.720;11.342;2022-11-20T05:02:47;19.45;;;8.52;;
44973;SDS011;60981;50.720;11.342;2022-11-20T05:03:49;22.98;;;9.30;;
44973;SDS011;60981;50.720;11.342;2022-11-20T05:04:51;18.88;;;7.72;;
44973;SDS011;60981;50.720;11.342;2022-11-20T05:05:53;21.80;;;10.05;;
44973;SDS011;60981;50.720;11.342;2022-11-20T05:06:55;21.15;;;8.77;;
44973;SDS011;60981;50.720;11.342;2022-11-20T05:07:57;24.10;;;8.85;;
44973;SDS011;60981;50.720;11.342;2022-11-20T05:08:59;21.02;;;8.60;;
44973;SDS011;60981;50.720;11.342;2022-11-20T05:10:02;21.05;;;8.93;;
44973;SDS011;60981;50.720;11.342;2022-11-20T05:11:05;20.55;;;8.55;;
44973;SDS011;60981;50.720;11.342;2022-11-20T05:12:09;20.55;;;9.30;;
44973;SDS011;60981;50.720;11.342;2022-11-20T05:13:11;19.80;;;8.20;;
44973;SDS011;60981;50.720;11.342;2022-11-20T05:14:12;21.30;;;8.20;;
44973;SDS011;60981;50.720;11.342;2022-11-20T05:15:14;21.48;;;8.55;;
44973;SDS011;60981;50.720;11.342;2022-11-20T05:16:17;25.92;;;9.13;;
44973;SDS011;60981;50.720;11.342;2022-11-20T05:17:21;17.88;;;7.22;;
44973;SDS011;60981;50.720;11.342;2022-11-20T05:18:23;22.95;;;8.55;;
44973;SDS011;60981;50.720;11.342;2022-11-20T05:19:25;20.85;;;8.38;;
44973;SDS011;60981;50.720;11.342;2022-11-20T05:20:26;20.40;;;8.65;;
44973;SDS011;60981;50.720;11.342;2022-11-20T05:21:30;20.20;;;8.88;;
44973;SDS011;60981;50.720;11.342;2022-11-20T05:22:32;23.33;;;9.32;;
44973;SDS011;60981;50.720;11.342;2022-11-20T05:23:34;21.60;;;9.07;;
44973;SDS011;60981;50.720;11.342;2022-11-20T05:24:37;23.42;;;8.70;;
44973;SDS011;60981;50.720;11.342;2022-11-20T05:25:38;21.58;;;9.52;;
44973;SDS011;60981;50.720;11.342;2022-11-20T05:26:40;19.45;;;8.40;;
44973;SDS011;60981;50.720;11.342;2022-11-20T05:27:42;26.27;;;9.40;;
44973;SDS011;60981;50.720;11.342;2022-11-20T05:28:44;19.88;;;8.10;;
44973;SDS011;60981;50.720;11.342;2022-11-20T05:29:46;23.73;;;9.85;;
44973;SDS011;60981;50.720;11.342;2022-11-20T05:30:48;23.98;;;9.82;;
44973;SDS011;60981;50.720;11.342;2022-11-20T05:31:51;19.15;;;8.35;;
44973;SDS011;60981;50.720;11.342;2022-11-20T05:32:52;19.33;;;7.93;;
44973;SDS011;60981;50.720;11.342;2022-11-20T05:33:55;17.70;;;7.38;;
44973;SDS011;60981;50.720;11.342;2022-11-20T05:34:58;18.58;;;8.02;;
44973;SDS011;60981;50.720;11.342;2022-11-20T05:36:00;20.60;;;8.05;;
44973;SDS011;60981;50.720;11.342;2022-11-20T05:37:04;20.23;;;8.27;;
44973;SDS011;60981;50.720;11.342;2022-11-20T05:38:06;20.50;;;8.55;;
44973;SDS011;60981;50.720;11.342;2022-11-20T05:39:08;21.48;;;8.18;;
44973;SDS011;60981;50.720;11.342;2022-11-20T05:40:09;17.65;;;8.10;;
44973;SDS011;60981;50.720;11.342;2022-11-20T05:41:13;19.98;;;8.40;;
44973;SDS011;60981;50.720;11.342;2022-11-20T05:42:16;19.25;;;8.32;;
44973;SDS011;60981;50.720;11.342;2022-11-20T05:43:33;20.10;;;8.48;;
44973;SDS011;60981;50.720;11.342;2022-11-20T05:44:36;19.48;;;8.93;;
44973;SDS011;60981;50.720;11.342;2022-11-20T05:45:37;18.88;;;8.68;;
44973;SDS011;60981;50.720;11.342;2022-11-20T05:46:39;19.20;;;7.82;;
44973;SDS011;60981;50.720;11.342;2022-11-20T05:47:41;19.02;;;7.82;;
44973;SDS011;60981;50.720;11.342;2022-11-20T05:48:44;20.52;;;9.40;;
44973;SDS011;60981;50.720;11.342;2022-11-20T05:49:47;21.17;;;9.10;;
44973;SDS011;60981;50.720;11.342;2022-11-20T05:50:49;18.77;;;7.40;;
44973;SDS011;60981;50.720;11.342;2022-11-20T05:51:50;21.00;;;9.40;;
44973;SDS011;60981;50.720;11.342;2022-11-20T05:52:52;21.70;;;8.50;;
44973;SDS011;60981;50.720;11.342;2022-11-20T05:53:55;19.50;;;8.27;;
44973;SDS011;60981;50.720;11.342;2022-11-20T05:54:58;20.02;;;8.35;;
44973;SDS011;60981;50.720;11.342;2022-11-20T05:56:07;18.17;;;7.55;;
44973;SDS011;60981;50.720;11.342;2022-11-20T05:57:11;16.80;;;7.15;;
44973;SDS011;60981;50.720;11.342;2022-11-20T05:58:13;19.70;;;8.35;;
44973;SDS011;60981;50.720;11.342;2022-11-20T05:59:15;19.85;;;8.05;;
44973;SDS011;60981;50.720;11.342;2022-11-20T06:00:18;19.25;;;8.27;;
44973;SDS011;60981;50.720;11.342;2022-11-20T06:01:21;17.55;;;8.02;;
44973;SDS011;60981;50.720;11.342;2022-11-20T06:02:24;16.80;;;7.80;;
44973;SDS011;60981;50.720;11.342;2022-11-20T06:03:26;17.33;;;7.45;;
44973;SDS011;60981;50.720;11.342;2022-11-20T06:04:28;17.08;;;7.88;;
44973;SDS011;60981;50.720;11.342;2022-11-20T06:05:30;18.98;;;7.97;;
44973;SDS011;60981;50.720;11.342;2022-11-20T06:06:32;17.25;;;6.60;;
44973;SDS011;60981;50.720;11.342;2022-11-20T06:07:33;17.05;;;7.03;;
44973;SDS011;60981;50.720;11.342;2022-11-20T06:08:35;18.33;;;7.80;;
44973;SDS011;60981;50.720;11.342;2022-11-20T06:09:37;18.73;;;7.65;;
44973;SDS011;60981;50.720;11.342;2022-11-20T06:10:39;16.25;;;6.95;;
44973;SDS011;60981;50.720;11.342;2022-11-20T06:11:40;17.48;;;7.97;;
44973;SDS011;60981;50.720;11.342;2022-11-20T06:12:42;20.58;;;8.27;;
44973;SDS011;60981;50.720;11.342;2022-11-20T06:13:44;18.80;;;7.60;;